sensor_id;sensor_type;location;lat;lon;timestamp;pressure;altitude;pressure_sealevel;temperature;humidity
7297;BME280;40758;54.038;11.684;2022-12-29T00:01:35;99833.22;;;6.32;100.00
7297;BME280;40758;54.038;11.684;2022-12-29T00:04:05;99839.16;;;6.35;100.00
7297;BME280;40758;54.038;11.684;2022-12-29T00:06:41;99824.72;;;6.38;100.00
7297;BME280;40758;54.038;11.684;2022-12-29T00:09:12;99830.91;;;6.38;100.00
7297;BME280;40758;54.038;11.684;2022-12-29T00:11:42;99828.97;;;6.40;100.00
7297;BME280;40758;54.038;11.684;2022-12-29T00:14:11;99839.75;;;6.39;100.00
7297;BME280;40758;54.038;11.684;2022-12-29T00:17:00;99812.72;;;6.43;100.00
7297;BME280;40758;54.038;11.684;2022-12-29T00:19:29;99823.75;;;6.39;100.00
7297;BME280;40758;54.038;11.684;2022-12-29T00:22:18;99830.78;;;6.40;100.00
7297;BME280;40758;54.038;11.684;2022-12-29T00:25:09;99815.50;;;6.42;100.00
7297;BME280;40758;54.038;11.684;2022-12-29T00:27:55;99824.50;;;6.41;100.00
7297;BME280;40758;54.038;11.684;2022-12-29T00:30:41;99813.56;;;6.44;100.00
7297;BME280;40758;54.038;11.684;2022-12-29T00:33:30;99816.22;;;6.44;100.00
7297;BME280;40758;54.038;11.684;2022-12-29T00:36:20;99811.75;;;6.44;100.00
7297;BME280;40758;54.038;11.684;2022-12-29T00:39:04;99817.19;;;6.43;100.00
7297;BME280;40758;54.038;11.684;2022-12-29T00:42:05;99825.94;;;6.45;100.00
7297;BME280;40758;54.038;11.684;2022-12-29T00:45:03;99818.03;;;6.43;100.00
7297;BME280;40758;54.038;11.684;2022-12-29T00:47:33;99816.69;;;6.49;100.00
7297;BME280;40758;54.038;11.684;2022-12-29T00:50:01;99808.69;;;6.49;100.00
7297;BME280;40758;54.038;11.684;2022-12-29T00:52:29;99796.19;;;6.49;100.00
7297;BME280;40758;54.038;11.684;2022-12-29T00:55:00;99803.25;;;6.50;100.00
7297;BME280;40758;54.038;11.684;2022-12-29T00:57:33;99808.47;;;6.52;100.00
7297;BME280;40758;54.038;11.684;2022-12-29T01:00:02;99802.28;;;6.52;100.00
7297;BME280;40758;54.038;11.684;2022-12-29T01:02:30;99812.56;;;6.56;100.00
7297;BME280;40758;54.038;11.684;2022-12-29T01:04:59;99810.00;;;6.55;100.00
7297;BME280;40758;54.038;11.684;2022-12-29T01:07:29;99810.88;;;6.55;100.00
7297;BME280;40758;54.038;11.684;2022-12-29T01:10:00;99819.59;;;6.57;100.00
7297;BME280;40758;54.038;11.684;2022-12-29T01:12:41;99814.03;;;6.60;100.00
7297;BME280;40758;54.038;11.684;2022-12-29T01:15:13;99810.13;;;6.64;100.00
7297;BME280;40758;54.038;11.684;2022-12-29T01:17:47;99803.69;;;6.67;100.00
7297;BME280;40758;54.038;11.684;2022-12-29T01:20:15;99811.56;;;6.68;100.00
7297;BME280;40758;54.038;11.684;2022-12-29T01:22:44;99818.38;;;6.72;100.00
7297;BME280;40758;54.038;11.684;2022-12-29T01:25:13;99821.16;;;6.71;100.00
7297;BME280;40758;54.038;11.684;2022-12-29T01:27:42;99806.84;;;6.72;100.00
7297;BME280;40758;54.038;11.684;2022-12-29T01:30:12;99782.44;;;6.76;100.00
7297;BME280;40758;54.038;11.684;2022-12-29T01:32:40;99789.97;;;6.71;100.00
7297;BME280;40758;54.038;11.684;2022-12-29T01:35:11;99773.19;;;6.80;100.00
7297;BME280;40758;54.038;11.684;2022-12-29T01:37:40;99770.63;;;6.79;100.00
7297;BME280;40758;54.038;11.684;2022-12-29T01:40:10;99764.81;;;6.85;100.00
7297;BME280;40758;54.038;11.684;2022-12-29T01:42:41;99754.84;;;6.87;100.00
7297;BME280;40758;54.038;11.684;2022-12-29T01:45:12;99766.38;;;6.87;100.00
7297;BME280;40758;54.038;11.684;2022-12-29T01:47:47;99762.78;;;6.77;100.00
7297;BME280;40758;54.038;11.684;2022-12-29T01:50:21;99762.16;;;6.74;100.00
7297;BME280;40758;54.038;11.684;2022-12-29T01:53:01;99753.06;;;6.76;100.00
7297;BME280;40758;54.038;11.684;2022-12-29T01:55:40;99756.94;;;6.83;100.00
7297;BME280;40758;54.038;11.684;2022-12-29T01:58:14;99721.59;;;6.91;100.00
7297;BME280;40758;54.038;11.684;2022-12-29T02:00:46;99749.09;;;6.91;100.00
7297;BME280;40758;54.038;11.684;2022-12-29T02:03:16;99735.91;;;6.90;100.00
7297;BME280;40758;54.038;11.684;2022-12-29T02:05:52;99728.25;;;6.85;100.00
7297;BME280;40758;54.038;11.684;2022-12-29T02:08:28;99731.41;;;6.90;100.00
7297;BME280;40758;54.038;11.684;2022-12-29T02:11:01;99729.78;;;6.99;100.00
7297;BME280;40758;54.038;11.684;2022-12-29T02:13:32;99729.53;;;7.02;100.00
7297;BME280;40758;54.038;11.684;2022-12-29T02:16:14;99730.38;;;7.03;100.00
7297;BME280;40758;54.038;11.684;2022-12-29T02:19:01;99731.09;;;7.05;100.00
7297;BME280;40758;54.038;11.684;2022-12-29T02:21:55;99714.09;;;7.06;100.00
7297;BME280;40758;54.038;11.684;2022-12-29T02:25:16;99712.06;;;6.98;100.00
7297;BME280;40758;54.038;11.684;2022-12-29T02:28:43;99716.50;;;7.09;100.00
7297;BME280;40758;54.038;11.684;2022-12-29T02:31:21;99716.31;;;7.01;100.00
7297;BME280;40758;54.038;11.684;2022-12-29T02:34:08;99711.81;;;7.01;100.00
7297;BME280;40758;54.038;11.684;2022-12-29T02:36:47;99710.50;;;6.96;100.00
7297;BME280;40758;54.038;11.684;2022-12-29T02:39:27;99701.13;;;7.01;100.00
7297;BME280;40758;54.038;11.684;2022-12-29T02:42:09;99697.22;;;7.05;100.00
7297;BME280;40758;54.038;11.684;2022-12-29T02:44:55;99689.66;;;7.10;100.00
7297;BME280;40758;54.038;11.684;2022-12-29T02:47:37;99692.19;;;7.12;100.00
7297;BME280;40758;54.038;11.684;2022-12-29T02:50:17;99683.94;;;7.15;100.00
7297;BME280;40758;54.038;11.684;2022-12-29T02:52:51;99695.06;;;7.20;100.00
7297;BME280;40758;54.038;11.684;2022-12-29T02:55:29;99687.25;;;7.28;100.00
7297;BME280;40758;54.038;11.684;2022-12-29T02:58:17;99693.72;;;7.35;100.00
7297;BME280;40758;54.038;11.684;2022-12-29T03:01:06;99692.31;;;7.31;100.00
7297;BME280;40758;54.038;11.684;2022-12-29T03:04:04;99682.91;;;7.37;100.00
7297;BME280;40758;54.038;11.684;2022-12-29T03:06:52;99679.16;;;7.39;100.00
7297;BME280;40758;54.038;11.684;2022-12-29T03:09:36;99674.25;;;7.44;100.00
7297;BME280;40758;54.038;11.684;2022-12-29T03:12:16;99675.81;;;7.47;100.00
7297;BME280;40758;54.038;11.684;2022-12-29T03:14:59;99671.25;;;7.38;100.00
7297;BME280;40758;54.038;11.684;2022-12-29T03:17:59;99660.59;;;7.47;100.00
7297;BME280;40758;54.038;11.684;2022-12-29T03:20:39;99652.16;;;7.42;100.00
7297;BME280;40758;54.038;11.684;2022-12-29T03:23:12;99651.03;;;7.45;100.00
7297;BME280;40758;54.038;11.684;2022-12-29T03:25:49;99661.59;;;7.46;100.00
7297;BME280;40758;54.038;11.684;2022-12-29T03:28:24;99668.72;;;7.36;100.00
7297;BME280;40758;54.038;11.684;2022-12-29T03:30:55;99653.84;;;7.43;100.00
7297;BME280;40758;54.038;11.684;2022-12-29T03:33:30;99663.69;;;7.43;100.00
7297;BME280;40758;54.038;11.684;2022-12-29T03:36:07;99673.16;;;7.47;100.00
7297;BME280;40758;54.038;11.684;2022-12-29T03:38:44;99667.66;;;7.48;100.00
7297;BME280;40758;54.038;11.684;2022-12-29T03:41:20;99662.81;;;7.32;100.00
7297;BME280;40758;54.038;11.684;2022-12-29T03:43:50;99660.06;;;7.23;100.00
7297;BME280;40758;54.038;11.684;2022-12-29T03:46:19;99651.28;;;7.11;100.00
7297;BME280;40758;54.038;11.684;2022-12-29T03:48:50;99643.91;;;7.04;100.00
7297;BME280;40758;54.038;11.684;2022-12-29T03:51:20;99646.47;;;7.05;100.00
7297;BME280;40758;54.038;11.684;2022-12-29T03:53:49;99655.31;;;7.06;100.00
7297;BME280;40758;54.038;11.684;2022-12-29T03:56:17;99639.59;;;7.03;100.00
7297;BME280;40758;54.038;11.684;2022-12-29T03:58:45;99658.72;;;7.08;100.00
7297;BME280;40758;54.038;11.684;2022-12-29T04:01:14;99648.50;;;7.13;100.00
7297;BME280;40758;54.038;11.684;2022-12-29T04:03:44;99646.78;;;7.12;100.00
7297;BME280;40758;54.038;11.684;2022-12-29T04:06:12;99639.06;;;7.09;100.00
7297;BME280;40758;54.038;11.684;2022-12-29T04:08:42;99632.91;;;7.18;100.00
7297;BME280;40758;54.038;11.684;2022-12-29T04:11:10;99638.25;;;7.18;100.00
7297;BME280;40758;54.038;11.684;2022-12-29T04:13:43;99624.88;;;7.18;100.00
7297;BME280;40758;54.038;11.684;2022-12-29T04:16:11;99596.97;;;7.22;100.00
7297;BME280;40758;54.038;11.684;2022-12-29T04:18:40;99632.38;;;7.24;100.00
7297;BME280;40758;54.038;11.684;2022-12-29T04:21:08;99619.00;;;7.24;100.00
7297;BME280;40758;54.038;11.684;2022-12-29T04:23:38;99629.78;;;7.13;100.00
7297;BME280;40758;54.038;11.684;2022-12-29T04:26:09;99615.72;;;7.11;100.00
7297;BME280;40758;54.038;11.684;2022-12-29T04:28:38;99634.72;;;7.17;100.00
7297;BME280;40758;54.038;11.684;2022-12-29T04:31:07;99609.31;;;7.23;100.00
7297;BME280;40758;54.038;11.684;2022-12-29T04:33:35;99607.34;;;7.25;100.00
7297;BME280;40758;54.038;11.684;2022-12-29T04:36:04;99604.38;;;7.18;100.00
7297;BME280;40758;54.038;11.684;2022-12-29T04:38:33;99605.63;;;7.14;100.00
7297;BME280;40758;54.038;11.684;2022-12-29T04:41:02;99613.50;;;7.16;100.00
7297;BME280;40758;54.038;11.684;2022-12-29T04:43:33;99601.56;;;7.20;100.00
7297;BME280;40758;54.038;11.684;2022-12-29T04:46:01;99594.66;;;7.17;100.00
7297;BME280;40758;54.038;11.684;2022-12-29T04:48:33;99598.06;;;7.19;100.00
7297;BME280;40758;54.038;11.684;2022-12-29T04:51:02;99594.66;;;7.17;100.00
7297;BME280;40758;54.038;11.684;2022-12-29T04:53:30;99598.84;;;7.10;100.00
7297;BME280;40758;54.038;11.684;2022-12-29T04:55:59;99599.88;;;7.19;100.00
7297;BME280;40758;54.038;11.684;2022-12-29T04:58:32;99592.72;;;7.19;100.00
7297;BME280;40758;54.038;11.684;2022-12-29T05:01:00;99588.53;;;7.26;100.00
7297;BME280;40758;54.038;11.684;2022-12-29T05:03:29;99594.75;;;7.37;100.00
7297;BME280;40758;54.038;11.684;2022-12-29T05:06:01;99590.13;;;7.39;100.00
7297;BME280;40758;54.038;11.684;2022-12-29T05:08:33;99576.03;;;7.37;100.00
7297;BME280;40758;54.038;11.684;2022-12-29T05:11:02;99588.72;;;7.44;100.00
7297;BME280;40758;54.038;11.684;2022-12-29T05:13:31;99596.22;;;7.50;100.00
7297;BME280;40758;54.038;11.684;2022-12-29T05:16:00;99599.06;;;7.58;100.00
7297;BME280;40758;54.038;11.684;2022-12-29T05:18:32;99591.63;;;7.71;100.00
7297;BME280;40758;54.038;11.684;2022-12-29T05:21:00;99584.44;;;7.72;100.00
7297;BME280;40758;54.038;11.684;2022-12-29T05:23:32;99576.84;;;7.67;100.00
7297;BME280;40758;54.038;11.684;2022-12-29T05:26:01;99589.22;;;7.68;100.00
7297;BME280;40758;54.038;11.684;2022-12-29T05:28:32;99579.38;;;7.79;100.00
7297;BME280;40758;54.038;11.684;2022-12-29T05:31:05;99573.78;;;7.82;100.00
7297;BME280;40758;54.038;11.684;2022-12-29T05:33:34;99581.09;;;7.80;100.00
7297;BME280;40758;54.038;11.684;2022-12-29T05:36:05;99582.38;;;7.85;100.00
7297;BME280;40758;54.038;11.684;2022-12-29T05:38:34;99579.00;;;7.83;100.00
7297;BME280;40758;54.038;11.684;2022-12-29T05:41:03;99569.28;;;7.82;100.00
7297;BME280;40758;54.038;11.684;2022-12-29T05:43:34;99561.94;;;7.84;100.00
7297;BME280;40758;54.038;11.684;2022-12-29T05:46:04;99563.34;;;7.79;100.00
7297;BME280;40758;54.038;11.684;2022-12-29T05:48:33;99547.75;;;7.84;100.00
7297;BME280;40758;54.038;11.684;2022-12-29T05:51:05;99555.50;;;7.77;100.00
7297;BME280;40758;54.038;11.684;2022-12-29T05:53:37;99570.69;;;7.77;100.00
7297;BME280;40758;54.038;11.684;2022-12-29T05:56:09;99558.28;;;7.85;100.00
7297;BME280;40758;54.038;11.684;2022-12-29T05:58:38;99548.56;;;7.84;100.00
7297;BME280;40758;54.038;11.684;2022-12-29T06:01:07;99550.69;;;7.81;100.00
7297;BME280;40758;54.038;11.684;2022-12-29T06:03:36;99546.75;;;7.85;100.00
7297;BME280;40758;54.038;11.684;2022-12-29T06:06:12;99553.78;;;7.86;100.00
7297;BME280;40758;54.038;11.684;2022-12-29T06:08:41;99554.66;;;7.96;100.00
7297;BME280;40758;54.038;11.684;2022-12-29T06:11:10;99549.03;;;7.99;100.00
7297;BME280;40758;54.038;11.684;2022-12-29T06:13:40;99551.00;;;8.06;100.00
7297;BME280;40758;54.038;11.684;2022-12-29T06:16:09;99550.03;;;8.07;100.00
7297;BME280;40758;54.038;11.684;2022-12-29T06:18:38;99564.25;;;8.08;100.00
7297;BME280;40758;54.038;11.684;2022-12-29T06:21:07;99547.06;;;8.20;100.00
7297;BME280;40758;54.038;11.684;2022-12-29T06:23:35;99547.50;;;8.25;100.00
7297;BME280;40758;54.038;11.684;2022-12-29T06:26:04;99544.50;;;8.28;100.00
7297;BME280;40758;54.038;11.684;2022-12-29T06:28:33;99542.28;;;8.24;100.00
7297;BME280;40758;54.038;11.684;2022-12-29T06:31:04;99551.88;;;8.26;100.00
7297;BME280;40758;54.038;11.684;2022-12-29T06:33:32;99552.13;;;8.23;100.00
7297;BME280;40758;54.038;11.684;2022-12-29T06:36:01;99537.78;;;8.24;100.00
7297;BME280;40758;54.038;11.684;2022-12-29T06:38:30;99537.34;;;8.29;100.00
7297;BME280;40758;54.038;11.684;2022-12-29T06:40:58;99534.56;;;8.30;100.00
7297;BME280;40758;54.038;11.684;2022-12-29T06:43:28;99529.31;;;8.29;100.00
7297;BME280;40758;54.038;11.684;2022-12-29T06:46:06;99533.41;;;8.23;100.00
7297;BME280;40758;54.038;11.684;2022-12-29T06:48:35;99552.84;;;8.25;100.00
7297;BME280;40758;54.038;11.684;2022-12-29T06:51:06;99537.38;;;8.38;100.00
7297;BME280;40758;54.038;11.684;2022-12-29T06:53:35;99548.94;;;8.39;100.00
7297;BME280;40758;54.038;11.684;2022-12-29T06:56:05;99560.91;;;8.44;100.00
7297;BME280;40758;54.038;11.684;2022-12-29T06:58:34;99552.88;;;8.44;100.00
7297;BME280;40758;54.038;11.684;2022-12-29T07:01:04;99549.88;;;8.47;100.00
7297;BME280;40758;54.038;11.684;2022-12-29T07:03:33;99534.25;;;8.43;100.00
7297;BME280;40758;54.038;11.684;2022-12-29T07:06:02;99549.31;;;8.53;100.00
7297;BME280;40758;54.038;11.684;2022-12-29T07:08:37;99548.34;;;8.55;100.00
7297;BME280;40758;54.038;11.684;2022-12-29T07:11:06;99560.16;;;8.62;100.00
7297;BME280;40758;54.038;11.684;2022-12-29T07:13:35;99563.25;;;8.67;100.00
7297;BME280;40758;54.038;11.684;2022-12-29T07:16:10;99553.47;;;8.85;100.00
7297;BME280;40758;54.038;11.684;2022-12-29T07:18:39;99552.06;;;8.90;100.00
7297;BME280;40758;54.038;11.684;2022-12-29T07:21:08;99563.34;;;8.94;100.00
7297;BME280;40758;54.038;11.684;2022-12-29T07:23:36;99570.22;;;8.97;100.00
7297;BME280;40758;54.038;11.684;2022-12-29T07:26:08;99544.31;;;8.87;100.00
7297;BME280;40758;54.038;11.684;2022-12-29T07:28:37;99552.09;;;8.71;100.00
7297;BME280;40758;54.038;11.684;2022-12-29T07:31:13;99541.97;;;8.75;100.00
7297;BME280;40758;54.038;11.684;2022-12-29T07:33:44;99551.09;;;8.82;100.00
7297;BME280;40758;54.038;11.684;2022-12-29T07:36:14;99555.44;;;8.83;100.00
7297;BME280;40758;54.038;11.684;2022-12-29T07:38:43;99551.78;;;8.84;100.00
7297;BME280;40758;54.038;11.684;2022-12-29T07:41:12;99545.16;;;8.88;100.00
7297;BME280;40758;54.038;11.684;2022-12-29T07:43:40;99538.25;;;8.85;100.00
7297;BME280;40758;54.038;11.684;2022-12-29T07:46:10;99533.88;;;8.84;100.00
7297;BME280;40758;54.038;11.684;2022-12-29T07:48:59;99523.31;;;8.83;100.00
7297;BME280;40758;54.038;11.684;2022-12-29T07:51:27;99511.53;;;8.76;100.00
7297;BME280;40758;54.038;11.684;2022-12-29T07:53:56;99536.34;;;8.68;100.00
7297;BME280;40758;54.038;11.684;2022-12-29T07:56:26;99534.78;;;8.66;100.00
7297;BME280;40758;54.038;11.684;2022-12-29T07:58:54;99532.94;;;8.66;100.00
7297;BME280;40758;54.038;11.684;2022-12-29T08:01:24;99536.19;;;8.60;100.00
7297;BME280;40758;54.038;11.684;2022-12-29T08:03:53;99538.88;;;8.60;100.00
7297;BME280;40758;54.038;11.684;2022-12-29T08:06:24;99536.78;;;8.64;100.00
7297;BME280;40758;54.038;11.684;2022-12-29T08:08:52;99543.66;;;8.66;100.00
7297;BME280;40758;54.038;11.684;2022-12-29T08:11:23;99539.44;;;8.64;100.00
7297;BME280;40758;54.038;11.684;2022-12-29T08:13:52;99537.72;;;8.82;100.00
7297;BME280;40758;54.038;11.684;2022-12-29T08:16:20;99535.72;;;8.84;100.00
7297;BME280;40758;54.038;11.684;2022-12-29T08:18:51;99544.19;;;8.79;100.00
7297;BME280;40758;54.038;11.684;2022-12-29T08:21:19;99538.97;;;8.78;100.00
7297;BME280;40758;54.038;11.684;2022-12-29T08:23:47;99548.69;;;8.88;100.00
7297;BME280;40758;54.038;11.684;2022-12-29T08:26:16;99540.81;;;8.87;100.00
7297;BME280;40758;54.038;11.684;2022-12-29T08:28:44;99557.53;;;8.99;100.00
7297;BME280;40758;54.038;11.684;2022-12-29T08:31:13;99563.03;;;8.97;100.00
7297;BME280;40758;54.038;11.684;2022-12-29T08:33:41;99557.66;;;9.07;100.00
7297;BME280;40758;54.038;11.684;2022-12-29T08:36:11;99559.97;;;9.29;100.00
7297;BME280;40758;54.038;11.684;2022-12-29T08:38:40;99568.28;;;9.26;100.00
7297;BME280;40758;54.038;11.684;2022-12-29T08:41:08;99558.91;;;9.40;100.00
7297;BME280;40758;54.038;11.684;2022-12-29T08:43:37;99551.59;;;9.32;100.00
7297;BME280;40758;54.038;11.684;2022-12-29T08:46:06;99557.09;;;9.40;100.00
7297;BME280;40758;54.038;11.684;2022-12-29T08:48:37;99541.19;;;9.29;100.00
7297;BME280;40758;54.038;11.684;2022-12-29T08:51:06;99551.25;;;9.17;100.00
7297;BME280;40758;54.038;11.684;2022-12-29T08:53:36;99545.50;;;9.12;100.00
7297;BME280;40758;54.038;11.684;2022-12-29T08:56:08;99561.59;;;9.12;100.00
7297;BME280;40758;54.038;11.684;2022-12-29T08:58:38;99560.16;;;9.08;100.00
7297;BME280;40758;54.038;11.684;2022-12-29T09:01:09;99556.09;;;9.04;100.00
7297;BME280;40758;54.038;11.684;2022-12-29T09:03:38;99568.25;;;8.99;100.00
7297;BME280;40758;54.038;11.684;2022-12-29T09:06:26;99568.53;;;8.96;100.00
7297;BME280;40758;54.038;11.684;2022-12-29T09:08:56;99575.63;;;8.87;100.00
7297;BME280;40758;54.038;11.684;2022-12-29T09:11:26;99590.13;;;8.94;100.00
7297;BME280;40758;54.038;11.684;2022-12-29T09:13:55;99570.81;;;8.90;100.00
7297;BME280;40758;54.038;11.684;2022-12-29T09:16:24;99574.22;;;8.73;100.00
7297;BME280;40758;54.038;11.684;2022-12-29T09:18:54;99541.81;;;8.67;100.00
7297;BME280;40758;54.038;11.684;2022-12-29T09:21:23;99563.69;;;8.52;100.00
7297;BME280;40758;54.038;11.684;2022-12-29T09:23:51;99555.53;;;8.44;100.00
7297;BME280;40758;54.038;11.684;2022-12-29T09:26:22;99563.56;;;8.44;100.00
7297;BME280;40758;54.038;11.684;2022-12-29T09:28:50;99568.22;;;8.42;100.00
7297;BME280;40758;54.038;11.684;2022-12-29T09:31:19;99581.47;;;8.44;100.00
7297;BME280;40758;54.038;11.684;2022-12-29T09:33:49;99582.84;;;8.48;100.00
7297;BME280;40758;54.038;11.684;2022-12-29T09:36:17;99595.38;;;8.47;100.00
7297;BME280;40758;54.038;11.684;2022-12-29T09:38:46;99602.69;;;8.65;100.00
7297;BME280;40758;54.038;11.684;2022-12-29T09:41:23;99594.38;;;8.58;100.00
7297;BME280;40758;54.038;11.684;2022-12-29T09:44:14;99603.44;;;8.57;100.00
7297;BME280;40758;54.038;11.684;2022-12-29T09:46:48;99605.41;;;8.45;100.00
7297;BME280;40758;54.038;11.684;2022-12-29T09:49:26;99598.78;;;8.49;100.00
7297;BME280;40758;54.038;11.684;2022-12-29T09:52:05;99603.41;;;8.47;100.00
7297;BME280;40758;54.038;11.684;2022-12-29T09:54:46;99610.47;;;8.48;100.00
7297;BME280;40758;54.038;11.684;2022-12-29T09:57:40;99606.25;;;8.56;100.00
7297;BME280;40758;54.038;11.684;2022-12-29T10:00:16;99603.56;;;8.56;100.00
7297;BME280;40758;54.038;11.684;2022-12-29T10:02:51;99602.28;;;8.60;100.00
7297;BME280;40758;54.038;11.684;2022-12-29T10:05:36;99601.03;;;8.64;100.00
7297;BME280;40758;54.038;11.684;2022-12-29T10:08:25;99590.16;;;8.75;100.00
7297;BME280;40758;54.038;11.684;2022-12-29T10:11:02;99586.19;;;8.88;100.00
7297;BME280;40758;54.038;11.684;2022-12-29T10:13:58;99585.84;;;9.01;100.00
7297;BME280;40758;54.038;11.684;2022-12-29T10:16:47;99584.44;;;9.71;100.00
7297;BME280;40758;54.038;11.684;2022-12-29T10:19:43;99581.31;;;10.21;100.00
7297;BME280;40758;54.038;11.684;2022-12-29T10:22:40;99572.13;;;10.41;100.00
7297;BME280;40758;54.038;11.684;2022-12-29T10:25:19;99567.97;;;10.29;100.00
7297;BME280;40758;54.038;11.684;2022-12-29T10:27:50;99575.88;;;10.48;100.00
7297;BME280;40758;54.038;11.684;2022-12-29T10:30:20;99578.56;;;10.30;100.00
7297;BME280;40758;54.038;11.684;2022-12-29T10:32:54;99571.47;;;10.11;100.00
7297;BME280;40758;54.038;11.684;2022-12-29T10:35:31;99595.53;;;10.03;100.00
7297;BME280;40758;54.038;11.684;2022-12-29T10:38:15;99582.63;;;9.89;100.00
7297;BME280;40758;54.038;11.684;2022-12-29T10:40:53;99599.81;;;9.96;100.00
7297;BME280;40758;54.038;11.684;2022-12-29T10:43:27;99595.59;;;9.94;100.00
7297;BME280;40758;54.038;11.684;2022-12-29T10:46:02;99579.72;;;10.00;100.00
7297;BME280;40758;54.038;11.684;2022-12-29T10:48:35;99583.88;;;10.12;100.00
7297;BME280;40758;54.038;11.684;2022-12-29T10:51:08;99584.56;;;9.97;100.00
7297;BME280;40758;54.038;11.684;2022-12-29T10:53:43;99594.56;;;9.77;100.00
7297;BME280;40758;54.038;11.684;2022-12-29T10:56:25;99588.59;;;9.83;100.00
7297;BME280;40758;54.038;11.684;2022-12-29T10:59:01;99575.75;;;10.04;100.00
7297;BME280;40758;54.038;11.684;2022-12-29T11:01:41;99590.63;;;9.99;100.00
7297;BME280;40758;54.038;11.684;2022-12-29T11:04:33;99569.31;;;9.97;100.00
7297;BME280;40758;54.038;11.684;2022-12-29T11:07:06;99567.41;;;10.07;100.00
7297;BME280;40758;54.038;11.684;2022-12-29T11:09:46;99570.16;;;9.98;100.00
7297;BME280;40758;54.038;11.684;2022-12-29T11:12:22;99576.50;;;9.97;100.00
7297;BME280;40758;54.038;11.684;2022-12-29T11:15:13;99570.91;;;10.18;100.00
7297;BME280;40758;54.038;11.684;2022-12-29T11:17:50;99568.88;;;10.20;100.00
7297;BME280;40758;54.038;11.684;2022-12-29T11:20:37;99553.81;;;9.91;100.00
7297;BME280;40758;54.038;11.684;2022-12-29T11:23:26;99553.22;;;9.97;100.00
7297;BME280;40758;54.038;11.684;2022-12-29T11:26:18;99554.75;;;10.53;100.00
7297;BME280;40758;54.038;11.684;2022-12-29T11:29:23;99550.88;;;10.99;100.00
7297;BME280;40758;54.038;11.684;2022-12-29T11:31:54;99553.06;;;10.95;100.00
7297;BME280;40758;54.038;11.684;2022-12-29T11:34:32;99550.78;;;11.09;100.00
7297;BME280;40758;54.038;11.684;2022-12-29T11:37:13;99543.00;;;10.98;100.00
7297;BME280;40758;54.038;11.684;2022-12-29T11:39:51;99545.13;;;10.94;100.00
7297;BME280;40758;54.038;11.684;2022-12-29T11:42:35;99540.97;;;11.00;100.00
7297;BME280;40758;54.038;11.684;2022-12-29T11:45:15;99554.59;;;10.72;100.00
7297;BME280;40758;54.038;11.684;2022-12-29T11:47:48;99534.13;;;10.53;100.00
7297;BME280;40758;54.038;11.684;2022-12-29T11:50:25;99537.59;;;10.46;100.00
7297;BME280;40758;54.038;11.684;2022-12-29T11:52:59;99542.34;;;10.52;100.00
7297;BME280;40758;54.038;11.684;2022-12-29T11:55:33;99545.94;;;10.61;100.00
7297;BME280;40758;54.038;11.684;2022-12-29T11:58:06;99549.88;;;10.74;100.00
7297;BME280;40758;54.038;11.684;2022-12-29T12:00:38;99551.59;;;10.58;100.00
7297;BME280;40758;54.038;11.684;2022-12-29T12:03:14;99560.91;;;10.28;100.00
7297;BME280;40758;54.038;11.684;2022-12-29T12:05:50;99566.13;;;10.11;100.00
7297;BME280;40758;54.038;11.684;2022-12-29T12:08:34;99551.22;;;9.99;100.00
7297;BME280;40758;54.038;11.684;2022-12-29T12:11:12;99569.91;;;9.91;100.00
7297;BME280;40758;54.038;11.684;2022-12-29T12:13:55;99549.16;;;9.93;100.00
7297;BME280;40758;54.038;11.684;2022-12-29T12:16:35;99564.16;;;9.68;100.00
7297;BME280;40758;54.038;11.684;2022-12-29T12:19:20;99556.03;;;9.51;100.00
7297;BME280;40758;54.038;11.684;2022-12-29T12:22:03;99560.75;;;9.66;100.00
7297;BME280;40758;54.038;11.684;2022-12-29T12:24:43;99570.75;;;9.74;100.00
7297;BME280;40758;54.038;11.684;2022-12-29T12:27:21;99557.63;;;9.71;100.00
7297;BME280;40758;54.038;11.684;2022-12-29T12:29:59;99567.25;;;9.64;100.00
7297;BME280;40758;54.038;11.684;2022-12-29T12:32:46;99556.53;;;9.64;100.00
7297;BME280;40758;54.038;11.684;2022-12-29T12:35:28;99563.63;;;9.83;100.00
7297;BME280;40758;54.038;11.684;2022-12-29T12:38:20;99559.78;;;9.85;100.00
7297;BME280;40758;54.038;11.684;2022-12-29T12:41:07;99563.19;;;9.87;100.00
7297;BME280;40758;54.038;11.684;2022-12-29T12:43:49;99548.13;;;9.94;100.00
7297;BME280;40758;54.038;11.684;2022-12-29T12:46:52;99538.63;;;10.00;100.00
7297;BME280;40758;54.038;11.684;2022-12-29T12:49:48;99540.56;;;9.90;100.00
7297;BME280;40758;54.038;11.684;2022-12-29T12:52:33;99547.28;;;9.94;100.00
7297;BME280;40758;54.038;11.684;2022-12-29T12:55:30;99552.28;;;10.06;100.00
7297;BME280;40758;54.038;11.684;2022-12-29T12:58:18;99547.75;;;10.17;100.00
7297;BME280;40758;54.038;11.684;2022-12-29T13:01:10;99547.75;;;10.17;100.00
7297;BME280;40758;54.038;11.684;2022-12-29T13:03:59;99539.22;;;10.21;100.00
7297;BME280;40758;54.038;11.684;2022-12-29T13:06:41;99553.09;;;10.17;100.00
7297;BME280;40758;54.038;11.684;2022-12-29T13:09:44;99553.13;;;10.07;100.00
7297;BME280;40758;54.038;11.684;2022-12-29T13:12:31;99562.41;;;10.12;100.00
7297;BME280;40758;54.038;11.684;2022-12-29T13:15:18;99555.91;;;10.15;100.00
7297;BME280;40758;54.038;11.684;2022-12-29T13:17:59;99549.69;;;10.14;100.00
7297;BME280;40758;54.038;11.684;2022-12-29T13:20:40;99546.31;;;10.12;100.00
7297;BME280;40758;54.038;11.684;2022-12-29T13:23:23;99548.97;;;10.22;100.00
7297;BME280;40758;54.038;11.684;2022-12-29T13:26:06;99542.03;;;10.20;100.00
7297;BME280;40758;54.038;11.684;2022-12-29T13:28:53;99553.63;;;10.20;100.00
7297;BME280;40758;54.038;11.684;2022-12-29T13:31:33;99548.25;;;10.20;100.00
7297;BME280;40758;54.038;11.684;2022-12-29T13:34:22;99547.47;;;10.10;100.00
7297;BME280;40758;54.038;11.684;2022-12-29T13:36:56;99535.56;;;10.12;100.00
7297;BME280;40758;54.038;11.684;2022-12-29T13:39:37;99557.75;;;10.14;100.00
7297;BME280;40758;54.038;11.684;2022-12-29T13:42:09;99535.84;;;10.19;100.00